Goshen, Massachusetts
Current Conditions -  °F | °C
As of 1:53 PM on Monday 22 Dec 2014 (Local Time) from KBAF Reporting Station
Overcast Overcast  
Wind Chill: 33°   Ceiling: 4700
Heat Index: 39°   Visibility: 10mi
Dew Point: 33°   Wind: 8mph
Humidity: 79%   Direction: 10°N
Pressure: 30.28"   Gusts: NA
Location:  42.44°N, 72.8°W
Report Text: KBAF 221853Z 01007KT 10SM SCT017 OVC047 04/01 A3028 RMK AO2 SLP259 T00390006
Loading
Personal Weather Stations






























Interactive Weather Map New forecast layout! Learn more

10-Day Weather Forecast

Advertisements
Track Severe Weather on mobile